sensor_id;sensor_type;location;lat;lon;timestamp;pressure;altitude;pressure_sealevel;temperature;humidity
7480;BME280;3781;42.272;22.658;2023-02-18T00:01:08;95458.19;;;0.96;71.51
7480;BME280;3781;42.272;22.658;2023-02-18T00:03:36;95459.31;;;0.66;72.84
7480;BME280;3781;42.272;22.658;2023-02-18T00:06:10;95454.81;;;0.49;74.42
7480;BME280;3781;42.272;22.658;2023-02-18T00:08:36;95452.75;;;0.59;76.05
7480;BME280;3781;42.272;22.658;2023-02-18T00:11:04;95443.97;;;0.66;75.35
7480;BME280;3781;42.272;22.658;2023-02-18T00:13:32;95452.53;;;0.88;74.33
7480;BME280;3781;42.272;22.658;2023-02-18T00:16:00;95428.91;;;0.82;75.00
7480;BME280;3781;42.272;22.658;2023-02-18T00:18:27;95450.00;;;1.10;73.83
7480;BME280;3781;42.272;22.658;2023-02-18T00:20:54;95433.41;;;0.98;74.67
7480;BME280;3781;42.272;22.658;2023-02-18T00:23:20;95439.16;;;0.82;74.64
7480;BME280;3781;42.272;22.658;2023-02-18T00:25:47;95430.09;;;0.73;76.07
7480;BME280;3781;42.272;22.658;2023-02-18T00:28:14;95426.09;;;0.43;78.09
7480;BME280;3781;42.272;22.658;2023-02-18T00:30:42;95374.94;;;-0.04;79.15
7480;BME280;3781;42.272;22.658;2023-02-18T00:33:09;95421.53;;;0.26;80.50
7480;BME280;3781;42.272;22.658;2023-02-18T00:35:36;95412.13;;;0.04;82.28
7480;BME280;3781;42.272;22.658;2023-02-18T00:38:02;95416.28;;;0.31;82.25
7480;BME280;3781;42.272;22.658;2023-02-18T00:40:29;95387.06;;;0.38;81.73
7480;BME280;3781;42.272;22.658;2023-02-18T00:42:56;95401.13;;;0.72;80.56
7480;BME280;3781;42.272;22.658;2023-02-18T00:45:22;95395.84;;;0.77;79.08
7480;BME280;3781;42.272;22.658;2023-02-18T00:47:50;95387.06;;;0.84;78.13
7480;BME280;3781;42.272;22.658;2023-02-18T00:50:17;95389.53;;;0.64;79.48
7480;BME280;3781;42.272;22.658;2023-02-18T00:52:44;95392.97;;;0.63;79.79
7480;BME280;3781;42.272;22.658;2023-02-18T00:55:11;95387.88;;;0.63;79.83
7480;BME280;3781;42.272;22.658;2023-02-18T00:57:37;95377.41;;;0.69;79.60
7480;BME280;3781;42.272;22.658;2023-02-18T01:00:06;95379.19;;;0.67;79.65
7480;BME280;3781;42.272;22.658;2023-02-18T01:02:33;95379.41;;;0.61;80.19
7480;BME280;3781;42.272;22.658;2023-02-18T01:05:01;95381.19;;;0.59;80.02
7480;BME280;3781;42.272;22.658;2023-02-18T01:07:28;95387.06;;;0.38;80.72
7480;BME280;3781;42.272;22.658;2023-02-18T01:09:54;95379.28;;;0.18;81.69
7480;BME280;3781;42.272;22.658;2023-02-18T01:12:21;95377.84;;;0.11;83.81
7480;BME280;3781;42.272;22.658;2023-02-18T01:14:48;95378.47;;;-0.08;85.53
7480;BME280;3781;42.272;22.658;2023-02-18T01:17:14;95372.22;;;0.01;85.69
7480;BME280;3781;42.272;22.658;2023-02-18T01:19:41;95375.69;;;0.00;87.11
7480;BME280;3781;42.272;22.658;2023-02-18T01:22:09;95375.66;;;-0.25;87.35
7480;BME280;3781;42.272;22.658;2023-02-18T01:24:36;95376.56;;;-0.52;89.40
7480;BME280;3781;42.272;22.658;2023-02-18T01:27:03;95375.25;;;-0.37;90.44
7480;BME280;3781;42.272;22.658;2023-02-18T01:29:30;95371.28;;;0.04;88.95
7480;BME280;3781;42.272;22.658;2023-02-18T01:31:57;95372.06;;;0.29;86.44
7480;BME280;3781;42.272;22.658;2023-02-18T01:34:23;95380.09;;;0.43;85.42
7480;BME280;3781;42.272;22.658;2023-02-18T01:36:50;95369.41;;;0.55;83.88
7480;BME280;3781;42.272;22.658;2023-02-18T01:39:18;95372.06;;;0.75;81.65
7480;BME280;3781;42.272;22.658;2023-02-18T01:41:45;95371.72;;;0.84;80.65
7480;BME280;3781;42.272;22.658;2023-02-18T01:44:17;95361.56;;;1.04;79.26
7480;BME280;3781;42.272;22.658;2023-02-18T01:46:45;95369.78;;;1.12;78.61
7480;BME280;3781;42.272;22.658;2023-02-18T01:49:16;95364.13;;;1.04;78.52
7480;BME280;3781;42.272;22.658;2023-02-18T01:51:48;95369.41;;;0.78;80.22
7480;BME280;3781;42.272;22.658;2023-02-18T01:54:19;95362.44;;;0.82;79.96
7480;BME280;3781;42.272;22.658;2023-02-18T01:56:50;95380.28;;;0.83;80.38
7480;BME280;3781;42.272;22.658;2023-02-18T01:59:23;95381.63;;;0.47;82.71
7480;BME280;3781;42.272;22.658;2023-02-18T02:01:52;95365.09;;;0.34;83.27
7480;BME280;3781;42.272;22.658;2023-02-18T02:04:19;95361.56;;;0.13;85.01
7480;BME280;3781;42.272;22.658;2023-02-18T02:06:46;95377.09;;;0.32;85.31
7480;BME280;3781;42.272;22.658;2023-02-18T02:09:15;95373.63;;;0.33;85.10
7480;BME280;3781;42.272;22.658;2023-02-18T02:12:00;95381.25;;;0.34;85.51
7480;BME280;3781;42.272;22.658;2023-02-18T02:14:55;95381.97;;;0.38;84.63
7480;BME280;3781;42.272;22.658;2023-02-18T02:17:32;95367.50;;;0.14;84.52
7480;BME280;3781;42.272;22.658;2023-02-18T02:20:28;95369.41;;;-0.16;86.10
7480;BME280;3781;42.272;22.658;2023-02-18T02:30:00;95363.00;;;-0.52;94.36
7480;BME280;3781;42.272;22.658;2023-02-18T02:35:36;95367.09;;;-0.48;96.43
7480;BME280;3781;42.272;22.658;2023-02-18T02:38:07;95370.66;;;-0.28;95.39
7480;BME280;3781;42.272;22.658;2023-02-18T02:40:41;95385.75;;;-0.22;92.44
7480;BME280;3781;42.272;22.658;2023-02-18T02:43:16;95386.59;;;-0.46;95.72
7480;BME280;3781;42.272;22.658;2023-02-18T02:45:53;95380.50;;;-0.68;97.50
7480;BME280;3781;42.272;22.658;2023-02-18T02:48:27;95397.09;;;-0.55;98.36
7480;BME280;3781;42.272;22.658;2023-02-18T02:51:02;95365.56;;;-0.80;98.84
7480;BME280;3781;42.272;22.658;2023-02-18T02:53:33;95397.38;;;-0.64;100.00
7480;BME280;3781;42.272;22.658;2023-02-18T02:56:00;95398.31;;;-0.66;99.98
7480;BME280;3781;42.272;22.658;2023-02-18T02:58:27;95389.94;;;-0.71;98.13
7480;BME280;3781;42.272;22.658;2023-02-18T03:01:10;95395.81;;;-0.68;99.23
7480;BME280;3781;42.272;22.658;2023-02-18T03:04:03;95387.94;;;-0.62;99.29
7480;BME280;3781;42.272;22.658;2023-02-18T03:06:57;95398.66;;;-0.51;100.00
7480;BME280;3781;42.272;22.658;2023-02-18T03:09:40;95383.44;;;-0.54;100.00
7480;BME280;3781;42.272;22.658;2023-02-18T03:12:16;95386.16;;;-0.34;98.60
7480;BME280;3781;42.272;22.658;2023-02-18T03:14:51;95378.38;;;-0.05;94.83
7480;BME280;3781;42.272;22.658;2023-02-18T03:17:25;95374.50;;;0.09;93.16
7480;BME280;3781;42.272;22.658;2023-02-18T03:19:56;95348.97;;;0.09;91.02
7480;BME280;3781;42.272;22.658;2023-02-18T03:22:29;95323.59;;;-0.44;91.67
7480;BME280;3781;42.272;22.658;2023-02-18T03:24:59;95340.56;;;-0.18;93.25
7480;BME280;3781;42.272;22.658;2023-02-18T03:27:30;95370.75;;;0.19;91.69
7480;BME280;3781;42.272;22.658;2023-02-18T03:30:00;95364.72;;;-0.04;91.99
7480;BME280;3781;42.272;22.658;2023-02-18T03:32:29;95367.88;;;-0.22;95.06
7480;BME280;3781;42.272;22.658;2023-02-18T03:34:59;95362.72;;;-0.45;96.58
7480;BME280;3781;42.272;22.658;2023-02-18T03:37:30;95385.41;;;-0.62;98.60
7480;BME280;3781;42.272;22.658;2023-02-18T03:40:00;95367.75;;;-0.94;100.00
7480;BME280;3781;42.272;22.658;2023-02-18T03:42:28;95397.88;;;-1.07;100.00
7480;BME280;3781;42.272;22.658;2023-02-18T03:44:55;95408.53;;;-1.22;100.00
7480;BME280;3781;42.272;22.658;2023-02-18T03:47:22;95415.72;;;-1.36;100.00
7480;BME280;3781;42.272;22.658;2023-02-18T03:49:49;95422.63;;;-1.39;100.00
7480;BME280;3781;42.272;22.658;2023-02-18T03:52:15;95418.31;;;-1.37;100.00
7480;BME280;3781;42.272;22.658;2023-02-18T03:54:43;95420.59;;;-1.58;100.00
7480;BME280;3781;42.272;22.658;2023-02-18T03:57:10;95424.78;;;-1.55;100.00
7480;BME280;3781;42.272;22.658;2023-02-18T03:59:37;95427.00;;;-1.44;100.00
7480;BME280;3781;42.272;22.658;2023-02-18T04:02:03;95435.53;;;-1.16;100.00
7480;BME280;3781;42.272;22.658;2023-02-18T04:04:30;95436.41;;;-1.46;100.00
7480;BME280;3781;42.272;22.658;2023-02-18T04:06:57;95427.25;;;-1.54;100.00
7480;BME280;3781;42.272;22.658;2023-02-18T04:09:24;95428.41;;;-1.34;100.00
7480;BME280;3781;42.272;22.658;2023-02-18T04:11:52;95434.03;;;-1.52;100.00
7480;BME280;3781;42.272;22.658;2023-02-18T04:14:19;95435.63;;;-1.48;100.00
7480;BME280;3781;42.272;22.658;2023-02-18T04:16:45;95426.00;;;-1.39;100.00
7480;BME280;3781;42.272;22.658;2023-02-18T04:19:12;95438.16;;;-1.19;100.00
7480;BME280;3781;42.272;22.658;2023-02-18T04:21:39;95441.63;;;-0.93;100.00
7480;BME280;3781;42.272;22.658;2023-02-18T04:24:05;95446.06;;;-0.71;100.00
7480;BME280;3781;42.272;22.658;2023-02-18T04:26:32;95440.25;;;-0.49;100.00
7480;BME280;3781;42.272;22.658;2023-02-18T04:29:00;95435.22;;;-0.26;100.00
7480;BME280;3781;42.272;22.658;2023-02-18T04:31:27;95435.06;;;0.05;99.07
7480;BME280;3781;42.272;22.658;2023-02-18T04:33:54;95431.28;;;0.40;94.67
7480;BME280;3781;42.272;22.658;2023-02-18T04:36:20;95443.75;;;0.72;91.21
7480;BME280;3781;42.272;22.658;2023-02-18T04:38:47;95432.34;;;0.34;91.16
7480;BME280;3781;42.272;22.658;2023-02-18T04:41:14;95428.19;;;-0.18;93.54
7480;BME280;3781;42.272;22.658;2023-02-18T04:43:41;95428.06;;;-0.67;98.95
7480;BME280;3781;42.272;22.658;2023-02-18T04:46:09;95427.09;;;-0.37;100.00
7480;BME280;3781;42.272;22.658;2023-02-18T04:48:35;95425.72;;;-0.21;98.88
7480;BME280;3781;42.272;22.658;2023-02-18T04:51:02;95427.09;;;-0.63;100.00
7480;BME280;3781;42.272;22.658;2023-02-18T04:53:29;95416.63;;;-1.09;100.00
7480;BME280;3781;42.272;22.658;2023-02-18T04:55:56;95409.53;;;-1.27;100.00
7480;BME280;3781;42.272;22.658;2023-02-18T04:58:23;95417.63;;;-1.42;100.00
7480;BME280;3781;42.272;22.658;2023-02-18T05:00:50;95418.22;;;-1.34;100.00
7480;BME280;3781;42.272;22.658;2023-02-18T05:03:19;95425.00;;;-1.33;100.00
7480;BME280;3781;42.272;22.658;2023-02-18T05:05:46;95429.13;;;-1.29;100.00
7480;BME280;3781;42.272;22.658;2023-02-18T05:08:12;95432.03;;;-1.41;100.00
7480;BME280;3781;42.272;22.658;2023-02-18T05:10:40;95432.72;;;-1.66;100.00
7480;BME280;3781;42.272;22.658;2023-02-18T05:13:07;95443.94;;;-1.73;100.00
7480;BME280;3781;42.272;22.658;2023-02-18T05:15:34;95439.81;;;-1.77;100.00
7480;BME280;3781;42.272;22.658;2023-02-18T05:18:00;95411.81;;;-2.09;100.00
7480;BME280;3781;42.272;22.658;2023-02-18T05:20:29;95395.03;;;-2.16;100.00
7480;BME280;3781;42.272;22.658;2023-02-18T05:22:55;95420.66;;;-2.22;100.00
7480;BME280;3781;42.272;22.658;2023-02-18T05:25:22;95417.44;;;-2.30;100.00
7480;BME280;3781;42.272;22.658;2023-02-18T05:27:49;95410.22;;;-2.13;100.00
7480;BME280;3781;42.272;22.658;2023-02-18T05:30:16;95415.63;;;-2.25;100.00
7480;BME280;3781;42.272;22.658;2023-02-18T05:32:42;95412.63;;;-2.41;100.00
7480;BME280;3781;42.272;22.658;2023-02-18T05:35:09;95390.41;;;-2.34;100.00
7480;BME280;3781;42.272;22.658;2023-02-18T05:37:37;95411.16;;;-2.17;100.00
7480;BME280;3781;42.272;22.658;2023-02-18T05:40:05;95393.97;;;-2.41;100.00
7480;BME280;3781;42.272;22.658;2023-02-18T05:42:32;95428.22;;;-2.20;100.00
7480;BME280;3781;42.272;22.658;2023-02-18T05:44:59;95402.72;;;-2.51;100.00
7480;BME280;3781;42.272;22.658;2023-02-18T05:47:26;95444.25;;;-2.17;100.00
7480;BME280;3781;42.272;22.658;2023-02-18T05:49:53;95459.13;;;-2.02;100.00
7480;BME280;3781;42.272;22.658;2023-02-18T05:52:20;95462.47;;;-2.00;100.00
7480;BME280;3781;42.272;22.658;2023-02-18T05:54:48;95447.88;;;-1.93;100.00
7480;BME280;3781;42.272;22.658;2023-02-18T05:57:15;95466.59;;;-1.64;100.00
7480;BME280;3781;42.272;22.658;2023-02-18T05:59:42;95453.31;;;-1.44;100.00
7480;BME280;3781;42.272;22.658;2023-02-18T06:02:09;95466.72;;;-1.08;100.00
7480;BME280;3781;42.272;22.658;2023-02-18T06:04:35;95454.31;;;-0.91;100.00
7480;BME280;3781;42.272;22.658;2023-02-18T06:07:02;95444.22;;;-0.94;100.00
7480;BME280;3781;42.272;22.658;2023-02-18T06:09:29;95459.84;;;-0.77;100.00
7480;BME280;3781;42.272;22.658;2023-02-18T06:11:57;95448.06;;;-0.81;100.00
7480;BME280;3781;42.272;22.658;2023-02-18T06:14:24;95458.78;;;-0.70;100.00
7480;BME280;3781;42.272;22.658;2023-02-18T06:16:52;95442.09;;;-0.54;100.00
7480;BME280;3781;42.272;22.658;2023-02-18T06:19:18;95431.25;;;-0.33;100.00
7480;BME280;3781;42.272;22.658;2023-02-18T06:21:45;95415.47;;;0.06;100.00
7480;BME280;3781;42.272;22.658;2023-02-18T06:24:12;95401.28;;;0.22;100.00
7480;BME280;3781;42.272;22.658;2023-02-18T06:26:38;95427.22;;;0.81;99.79
7480;BME280;3781;42.272;22.658;2023-02-18T06:29:06;95424.56;;;1.28;97.70
7480;BME280;3781;42.272;22.658;2023-02-18T06:31:33;95434.81;;;1.72;92.97
7480;BME280;3781;42.272;22.658;2023-02-18T06:34:00;95432.03;;;1.11;97.09
7480;BME280;3781;42.272;22.658;2023-02-18T06:36:26;95443.19;;;0.87;99.78
7480;BME280;3781;42.272;22.658;2023-02-18T06:38:53;95452.75;;;1.05;98.86
7480;BME280;3781;42.272;22.658;2023-02-18T06:41:22;95437.00;;;1.16;97.92
7480;BME280;3781;42.272;22.658;2023-02-18T06:43:49;95450.19;;;1.50;93.45
7480;BME280;3781;42.272;22.658;2023-02-18T06:46:17;95431.59;;;1.67;89.66
7480;BME280;3781;42.272;22.658;2023-02-18T06:48:43;95455.91;;;1.77;88.51
7480;BME280;3781;42.272;22.658;2023-02-18T06:51:10;95451.72;;;2.36;85.64
7480;BME280;3781;42.272;22.658;2023-02-18T06:53:37;95456.78;;;3.15;78.32
7480;BME280;3781;42.272;22.658;2023-02-18T06:56:04;95453.63;;;3.81;75.45
7480;BME280;3781;42.272;22.658;2023-02-18T06:58:31;95443.13;;;3.69;75.64
7480;BME280;3781;42.272;22.658;2023-02-18T07:00:58;95448.22;;;3.52;76.99
7480;BME280;3781;42.272;22.658;2023-02-18T07:03:26;95444.84;;;3.33;79.37
7480;BME280;3781;42.272;22.658;2023-02-18T07:05:53;95443.88;;;3.17;78.77
7480;BME280;3781;42.272;22.658;2023-02-18T07:08:19;95434.59;;;2.95;78.16
7480;BME280;3781;42.272;22.658;2023-02-18T07:10:46;95395.41;;;2.73;78.43
7480;BME280;3781;42.272;22.658;2023-02-18T07:13:14;95442.53;;;3.27;78.13
7480;BME280;3781;42.272;22.658;2023-02-18T07:15:40;95433.41;;;3.21;79.43
7480;BME280;3781;42.272;22.658;2023-02-18T07:18:07;95443.44;;;3.44;79.20
7480;BME280;3781;42.272;22.658;2023-02-18T07:20:35;95432.31;;;3.44;78.43
7480;BME280;3781;42.272;22.658;2023-02-18T07:23:02;95439.91;;;3.10;80.43
7480;BME280;3781;42.272;22.658;2023-02-18T07:25:28;95442.06;;;2.81;83.21
7480;BME280;3781;42.272;22.658;2023-02-18T07:27:55;95433.25;;;2.48;85.38
7480;BME280;3781;42.272;22.658;2023-02-18T07:30:22;95433.47;;;2.82;84.51
7480;BME280;3781;42.272;22.658;2023-02-18T07:32:48;95452.75;;;2.91;82.62
7480;BME280;3781;42.272;22.658;2023-02-18T07:35:16;95454.81;;;3.20;81.07
7480;BME280;3781;42.272;22.658;2023-02-18T07:37:45;95440.84;;;3.09;78.02
7480;BME280;3781;42.272;22.658;2023-02-18T07:40:14;95433.19;;;2.88;77.26
7480;BME280;3781;42.272;22.658;2023-02-18T07:42:40;95427.63;;;3.16;77.10
7480;BME280;3781;42.272;22.658;2023-02-18T07:45:08;95426.81;;;3.16;76.05
7480;BME280;3781;42.272;22.658;2023-02-18T07:47:35;95445.50;;;3.55;75.25
7480;BME280;3781;42.272;22.658;2023-02-18T07:50:03;95444.72;;;3.71;73.44
7480;BME280;3781;42.272;22.658;2023-02-18T07:52:30;95460.81;;;3.92;71.85
7480;BME280;3781;42.272;22.658;2023-02-18T07:54:58;95452.69;;;4.18;69.88
7480;BME280;3781;42.272;22.658;2023-02-18T07:57:25;95445.06;;;3.64;71.23
7480;BME280;3781;42.272;22.658;2023-02-18T07:59:51;95449.78;;;3.90;70.98
7480;BME280;3781;42.272;22.658;2023-02-18T08:02:19;95444.75;;;4.23;69.30
7480;BME280;3781;42.272;22.658;2023-02-18T08:04:46;95440.69;;;5.01;66.72
7480;BME280;3781;42.272;22.658;2023-02-18T08:07:14;95428.09;;;5.44;63.01
7480;BME280;3781;42.272;22.658;2023-02-18T08:09:41;95447.34;;;5.68;62.05
7480;BME280;3781;42.272;22.658;2023-02-18T08:12:10;95445.53;;;5.85;61.59
7480;BME280;3781;42.272;22.658;2023-02-18T08:14:37;95450.34;;;5.60;61.60
7480;BME280;3781;42.272;22.658;2023-02-18T08:17:04;95447.38;;;5.52;61.82
7480;BME280;3781;42.272;22.658;2023-02-18T08:19:31;95448.03;;;5.56;61.34
7480;BME280;3781;42.272;22.658;2023-02-18T08:22:00;95435.56;;;5.48;61.31
7480;BME280;3781;42.272;22.658;2023-02-18T08:24:26;95439.47;;;5.55;61.89
7480;BME280;3781;42.272;22.658;2023-02-18T08:26:53;95431.91;;;5.52;62.59
7480;BME280;3781;42.272;22.658;2023-02-18T08:29:21;95383.78;;;6.28;61.36
7480;BME280;3781;42.272;22.658;2023-02-18T08:31:48;95416.63;;;7.92;57.18
7480;BME280;3781;42.272;22.658;2023-02-18T08:34:16;95420.72;;;8.73;53.91
7480;BME280;3781;42.272;22.658;2023-02-18T08:36:43;95414.34;;;8.78;52.63
7480;BME280;3781;42.272;22.658;2023-02-18T08:39:10;95414.28;;;9.65;51.16
7480;BME280;3781;42.272;22.658;2023-02-18T08:41:36;95432.91;;;10.65;48.64
7480;BME280;3781;42.272;22.658;2023-02-18T08:44:03;95431.22;;;12.19;44.78
7480;BME280;3781;42.272;22.658;2023-02-18T08:46:32;95413.94;;;12.18;44.29
7480;BME280;3781;42.272;22.658;2023-02-18T08:48:58;95434.50;;;13.35;41.63
7480;BME280;3781;42.272;22.658;2023-02-18T08:51:25;95442.66;;;13.21;41.58
7480;BME280;3781;42.272;22.658;2023-02-18T08:53:52;95434.53;;;13.84;39.25
7480;BME280;3781;42.272;22.658;2023-02-18T08:56:19;95437.00;;;14.54;38.69
7480;BME280;3781;42.272;22.658;2023-02-18T08:58:46;95419.81;;;14.61;37.19
7480;BME280;3781;42.272;22.658;2023-02-18T09:01:12;95436.38;;;15.18;36.60
7480;BME280;3781;42.272;22.658;2023-02-18T09:03:41;95429.13;;;14.73;36.02
7480;BME280;3781;42.272;22.658;2023-02-18T09:06:08;95433.97;;;14.49;37.67
7480;BME280;3781;42.272;22.658;2023-02-18T09:08:34;95424.63;;;14.37;37.25
7480;BME280;3781;42.272;22.658;2023-02-18T09:11:03;95421.56;;;14.89;36.56
7480;BME280;3781;42.272;22.658;2023-02-18T09:13:31;95412.72;;;15.83;34.66
7480;BME280;3781;42.272;22.658;2023-02-18T09:16:00;95419.19;;;16.06;34.44
7480;BME280;3781;42.272;22.658;2023-02-18T09:18:27;95417.28;;;15.99;33.68
7480;BME280;3781;42.272;22.658;2023-02-18T09:20:57;95403.94;;;16.19;33.92
7480;BME280;3781;42.272;22.658;2023-02-18T09:23:25;95407.38;;;16.73;33.38
7480;BME280;3781;42.272;22.658;2023-02-18T09:25:53;95399.06;;;16.77;32.36
7480;BME280;3781;42.272;22.658;2023-02-18T09:28:20;95395.19;;;17.07;31.42
7480;BME280;3781;42.272;22.658;2023-02-18T09:30:47;95385.19;;;17.36;31.84
7480;BME280;3781;42.272;22.658;2023-02-18T09:33:14;95380.09;;;17.68;30.94
7480;BME280;3781;42.272;22.658;2023-02-18T09:35:42;95383.75;;;17.83;30.67
7480;BME280;3781;42.272;22.658;2023-02-18T09:38:14;95376.16;;;17.05;31.75
7480;BME280;3781;42.272;22.658;2023-02-18T09:40:43;95366.78;;;18.12;29.89
7480;BME280;3781;42.272;22.658;2023-02-18T09:43:18;95342.84;;;17.73;30.56
7480;BME280;3781;42.272;22.658;2023-02-18T09:45:49;95366.75;;;17.28;30.66
7480;BME280;3781;42.272;22.658;2023-02-18T09:48:16;95363.72;;;17.74;30.38
7480;BME280;3781;42.272;22.658;2023-02-18T09:50:46;95377.84;;;19.12;29.29
7480;BME280;3781;42.272;22.658;2023-02-18T09:53:18;95360.19;;;19.28;28.51
7480;BME280;3781;42.272;22.658;2023-02-18T09:55:47;95350.22;;;17.69;29.67
7480;BME280;3781;42.272;22.658;2023-02-18T09:58:18;95373.38;;;18.16;30.24
7480;BME280;3781;42.272;22.658;2023-02-18T10:00:46;95366.03;;;18.83;28.99
7480;BME280;3781;42.272;22.658;2023-02-18T10:03:17;95369.56;;;17.26;30.47
7480;BME280;3781;42.272;22.658;2023-02-18T10:05:54;95357.50;;;17.42;31.21
7480;BME280;3781;42.272;22.658;2023-02-18T10:08:25;95343.19;;;18.68;29.31
7480;BME280;3781;42.272;22.658;2023-02-18T10:13:30;95358.56;;;18.06;30.31
7480;BME280;3781;42.272;22.658;2023-02-18T10:15:57;95358.91;;;17.36;31.12
7480;BME280;3781;42.272;22.658;2023-02-18T10:18:27;95350.72;;;15.74;32.95
7480;BME280;3781;42.272;22.658;2023-02-18T10:21:02;95347.91;;;15.85;33.29
7480;BME280;3781;42.272;22.658;2023-02-18T10:23:33;95335.75;;;15.66;33.73
7480;BME280;3781;42.272;22.658;2023-02-18T10:26:02;95328.06;;;15.28;34.42
7480;BME280;3781;42.272;22.658;2023-02-18T10:28:31;95322.44;;;16.30;32.72
7480;BME280;3781;42.272;22.658;2023-02-18T10:31:01;95307.91;;;16.53;32.62
7480;BME280;3781;42.272;22.658;2023-02-18T10:33:33;95313.19;;;17.13;31.91
7480;BME280;3781;42.272;22.658;2023-02-18T10:36:23;95302.69;;;18.21;30.59
7480;BME280;3781;42.272;22.658;2023-02-18T10:39:05;95294.81;;;18.37;30.11
7480;BME280;3781;42.272;22.658;2023-02-18T10:41:40;95293.31;;;18.42;29.92
7480;BME280;3781;42.272;22.658;2023-02-18T10:44:15;95262.25;;;17.97;30.60
7480;BME280;3781;42.272;22.658;2023-02-18T10:46:57;95287.38;;;17.84;30.95
7480;BME280;3781;42.272;22.658;2023-02-18T10:49:40;95289.28;;;17.16;31.68
7480;BME280;3781;42.272;22.658;2023-02-18T10:52:13;95293.53;;;16.83;32.11
7480;BME280;3781;42.272;22.658;2023-02-18T10:54:57;95270.66;;;17.01;32.28
7480;BME280;3781;42.272;22.658;2023-02-18T10:57:24;95283.44;;;16.71;32.73
7480;BME280;3781;42.272;22.658;2023-02-18T10:59:58;95284.56;;;15.54;34.50
7480;BME280;3781;42.272;22.658;2023-02-18T11:02:30;95272.00;;;15.31;35.52
7480;BME280;3781;42.272;22.658;2023-02-18T11:04:59;95269.28;;;15.50;34.62
7480;BME280;3781;42.272;22.658;2023-02-18T11:07:33;95257.34;;;16.00;33.99
7480;BME280;3781;42.272;22.658;2023-02-18T11:10:09;95248.19;;;16.04;33.22
7480;BME280;3781;42.272;22.658;2023-02-18T11:12:43;95221.31;;;15.04;35.43
7480;BME280;3781;42.272;22.658;2023-02-18T11:15:19;95243.41;;;15.82;35.53
7480;BME280;3781;42.272;22.658;2023-02-18T11:17:49;95236.38;;;16.00;34.40
7480;BME280;3781;42.272;22.658;2023-02-18T11:20:29;95231.63;;;16.21;33.82
7480;BME280;3781;42.272;22.658;2023-02-18T11:22:59;95244.22;;;16.43;33.80
7480;BME280;3781;42.272;22.658;2023-02-18T11:25:40;95247.25;;;15.43;34.82
7480;BME280;3781;42.272;22.658;2023-02-18T11:28:27;95245.41;;;15.53;35.04
7480;BME280;3781;42.272;22.658;2023-02-18T11:30:58;95243.59;;;15.08;35.54
7480;BME280;3781;42.272;22.658;2023-02-18T11:33:32;95245.63;;;15.42;35.59
7480;BME280;3781;42.272;22.658;2023-02-18T11:36:03;95239.28;;;16.92;33.08
7480;BME280;3781;42.272;22.658;2023-02-18T11:38:35;95237.94;;;17.87;31.74
7480;BME280;3781;42.272;22.658;2023-02-18T11:41:06;95229.41;;;18.18;31.17
7480;BME280;3781;42.272;22.658;2023-02-18T11:43:34;95238.44;;;19.10;29.60
7480;BME280;3781;42.272;22.658;2023-02-18T11:46:08;95224.03;;;18.98;29.51
7480;BME280;3781;42.272;22.658;2023-02-18T11:48:35;95219.88;;;19.42;29.38
7480;BME280;3781;42.272;22.658;2023-02-18T11:51:02;95222.91;;;20.07;28.56
7480;BME280;3781;42.272;22.658;2023-02-18T11:53:32;95219.56;;;21.02;27.71
7480;BME280;3781;42.272;22.658;2023-02-18T11:56:01;95209.69;;;19.93;28.01
7480;BME280;3781;42.272;22.658;2023-02-18T11:58:36;95191.59;;;19.36;28.93
7480;BME280;3781;42.272;22.658;2023-02-18T12:01:05;95187.28;;;19.66;28.88
7480;BME280;3781;42.272;22.658;2023-02-18T12:03:41;95178.53;;;19.74;29.25
7480;BME280;3781;42.272;22.658;2023-02-18T12:06:14;95170.75;;;19.27;29.40
7480;BME280;3781;42.272;22.658;2023-02-18T12:08:48;95167.97;;;19.74;29.86
7480;BME280;3781;42.272;22.658;2023-02-18T12:11:24;95162.13;;;19.64;29.86
7480;BME280;3781;42.272;22.658;2023-02-18T12:13:55;95147.09;;;20.09;29.37
7480;BME280;3781;42.272;22.658;2023-02-18T12:16:32;95150.16;;;20.79;28.61
7480;BME280;3781;42.272;22.658;2023-02-18T12:19:16;95152.53;;;22.17;27.09
7480;BME280;3781;42.272;22.658;2023-02-18T12:21:55;95156.41;;;23.11;25.61
7480;BME280;3781;42.272;22.658;2023-02-18T12:24:40;95161.22;;;24.09;25.12
7480;BME280;3781;42.272;22.658;2023-02-18T12:27:15;95151.03;;;22.98;26.11
7480;BME280;3781;42.272;22.658;2023-02-18T12:29:59;95141.00;;;22.04;26.35
7480;BME280;3781;42.272;22.658;2023-02-18T12:32:35;95142.34;;;21.00;27.24
7480;BME280;3781;42.272;22.658;2023-02-18T12:35:29;95142.22;;;21.59;26.95
7480;BME280;3781;42.272;22.658;2023-02-18T12:38:17;95138.25;;;21.69;26.31
7480;BME280;3781;42.272;22.658;2023-02-18T12:41:01;95140.50;;;22.42;26.07
7480;BME280;3781;42.272;22.658;2023-02-18T12:43:36;95136.25;;;22.76;25.64
7480;BME280;3781;42.272;22.658;2023-02-18T12:49:06;95143.19;;;22.21;25.65
7480;BME280;3781;42.272;22.658;2023-02-18T12:51:43;95141.41;;;23.31;25.36
7480;BME280;3781;42.272;22.658;2023-02-18T12:54:40;95143.78;;;23.73;24.06
7480;BME280;3781;42.272;22.658;2023-02-18T12:57:21;95129.31;;;22.68;25.00
7480;BME280;3781;42.272;22.658;2023-02-18T13:00:27;95139.88;;;22.40;25.58
7480;BME280;3781;42.272;22.658;2023-02-18T13:03:26;95126.91;;;22.80;24.36
7480;BME280;3781;42.272;22.658;2023-02-18T13:06:02;95114.72;;;21.18;26.23
7480;BME280;3781;42.272;22.658;2023-02-18T13:08:40;95112.63;;;20.11;28.20
7480;BME280;3781;42.272;22.658;2023-02-18T13:11:23;95109.84;;;20.27;28.76
7480;BME280;3781;42.272;22.658;2023-02-18T13:14:00;95095.16;;;20.97;27.28
7480;BME280;3781;42.272;22.658;2023-02-18T13:16:30;95113.25;;;21.51;26.53
7480;BME280;3781;42.272;22.658;2023-02-18T13:19:02;95105.59;;;22.60;25.65
7480;BME280;3781;42.272;22.658;2023-02-18T13:21:35;95108.81;;;22.56;25.64
7480;BME280;3781;42.272;22.658;2023-02-18T13:24:08;95115.38;;;22.04;26.14
7480;BME280;3781;42.272;22.658;2023-02-18T13:26:35;95117.38;;;21.39;26.62
7480;BME280;3781;42.272;22.658;2023-02-18T13:29:14;95118.84;;;20.91;27.65
7480;BME280;3781;42.272;22.658;2023-02-18T13:31:55;95119.75;;;21.48;27.07
7480;BME280;3781;42.272;22.658;2023-02-18T13:34:30;95109.66;;;20.87;27.47
7480;BME280;3781;42.272;22.658;2023-02-18T13:37:05;95110.34;;;21.46;26.78
7480;BME280;3781;42.272;22.658;2023-02-18T13:39:34;95116.53;;;22.23;26.52
7480;BME280;3781;42.272;22.658;2023-02-18T13:42:24;95107.63;;;22.99;25.44
7480;BME280;3781;42.272;22.658;2023-02-18T13:47:47;95096.63;;;23.62;23.89